Time;durP1;ratioP1;P1;durP2;ratioP2;P2;SDS_P1;SDS_P2;PMS_P1;PMS_P2;Temp;Humidity;BMP_temperature;BMP_pressure;BME280_temperature;BME280_humidity;BME280_pressure;Samples;Min_cycle;Max_cycle;Signal;HPM_P1;HPM_P2
2022/02/19 00:01:10;;;;;;;;;;;7.60;99.90;;;;;;5171456;27;43973;-80
2022/02/19 00:03:37;;;;;;;;;;;7.60;99.90;;;;;;5173715;27;43876;-80
2022/02/19 00:06:04;;;;;;;;;;;7.60;99.90;;;;;;5171681;27;43214;-80
2022/02/19 00:08:31;;;;;;;;;;;7.60;99.90;;;;;;5172980;27;43292;-81
2022/02/19 00:10:58;;;;;;;;;;;7.60;99.90;;;;;;5172026;27;46098;-80
2022/02/19 00:13:26;;;;;;;;;;;7.60;99.90;;;;;;5171529;27;44132;-80
2022/02/19 00:15:53;;;;;;;;;;;7.60;99.90;;;;;;5171587;27;42567;-80
2022/02/19 00:18:20;;;;;;;;;;;7.50;99.90;;;;;;5172792;27;42850;-80
2022/02/19 00:20:53;;;;;;;;;;;7.50;99.90;;;;;;5171628;27;43812;-80
2022/02/19 00:23:20;;;;;;;;;;;7.50;99.90;;;;;;5171535;27;44180;-80
2022/02/19 00:25:47;;;;;;;;;;;7.50;99.90;;;;;;5171527;27;44362;-81
2022/02/19 00:28:15;;;;;;;;;;;7.50;99.90;;;;;;5171646;27;44494;-80
2022/02/19 00:30:43;;;;;;;;;;;7.50;99.90;;;;;;5172783;27;44037;-80
2022/02/19 00:33:10;;;;;;;;;;;7.50;99.90;;;;;;5173034;27;43213;-81
2022/02/19 00:35:37;;;;;;;;;;;7.50;99.90;;;;;;5172831;27;43338;-80
2022/02/19 00:38:04;;;;;;;;;;;7.50;99.90;;;;;;5171807;27;43244;-80
2022/02/19 00:40:31;;;;;;;;;;;7.40;99.90;;;;;;5171878;27;44030;-81
2022/02/19 00:42:58;;;;;;;;;;;7.50;99.90;;;;;;5173372;27;44247;-81
2022/02/19 00:45:25;;;;;;;;;;;7.40;99.90;;;;;;5173374;27;45485;-80
2022/02/19 00:47:52;;;;;;;;;;;7.40;99.90;;;;;;5172115;27;27008;-80
2022/02/19 00:50:19;;;;;;;;;;;7.40;99.90;;;;;;5172651;27;43875;-80
2022/02/19 00:52:46;;;;;;;;;;;7.40;99.90;;;;;;5171524;27;43010;-80
2022/02/19 00:55:14;;;;;;;;;;;7.40;99.90;;;;;;5171381;27;43154;-80
2022/02/19 00:57:41;;;;;;;;;;;7.40;99.90;;;;;;5243649;27;44389;-80
2022/02/19 01:00:11;;;;;;;;;;;7.40;99.90;;;;;;5171790;27;44688;-80
2022/02/19 01:02:38;;;;;;;;;;;7.40;99.90;;;;;;5171239;27;43620;-80
2022/02/19 01:05:05;;;;;;;;;;;7.30;99.90;;;;;;5172669;27;44239;-80
2022/02/19 01:07:35;;;;;;;;;;;7.30;99.90;;;;;;5171343;27;43786;-80
2022/02/19 01:10:03;;;;;;;;;;;7.30;99.90;;;;;;5172956;27;43492;-80
2022/02/19 01:12:30;;;;;;;;;;;7.30;99.90;;;;;;5171330;27;43313;-80
2022/02/19 01:14:57;;;;;;;;;;;7.30;99.90;;;;;;5171338;27;43963;-80
2022/02/19 01:17:27;;;;;;;;;;;7.30;99.90;;;;;;5242578;27;44147;-80
2022/02/19 01:19:54;;;;;;;;;;;7.30;99.90;;;;;;5172591;27;44242;-80
2022/02/19 01:22:21;;;;;;;;;;;7.30;99.90;;;;;;5172616;27;44940;-80
2022/02/19 01:24:49;;;;;;;;;;;7.20;99.90;;;;;;5172630;27;43239;-80
2022/02/19 01:27:16;;;;;;;;;;;7.20;99.90;;;;;;5172675;27;43868;-80
2022/02/19 01:29:43;;;;;;;;;;;7.20;99.90;;;;;;5173148;27;45268;-80
2022/02/19 01:32:11;;;;;;;;;;;7.20;99.90;;;;;;5173925;27;44251;-80
2022/02/19 01:34:38;;;;;;;;;;;7.20;99.90;;;;;;5173800;27;44146;-80
2022/02/19 01:37:05;;;;;;;;;;;7.20;99.90;;;;;;5172913;27;43402;-80
2022/02/19 01:39:32;;;;;;;;;;;7.20;99.90;;;;;;5172424;27;43852;-80
2022/02/19 01:41:59;;;;;;;;;;;7.20;99.90;;;;;;5173976;27;44064;-80
2022/02/19 01:44:35;;;;;;;;;;;7.20;99.90;;;;;;5173987;27;42231;-80
2022/02/19 01:47:05;;;;;;;;;;;7.20;99.90;;;;;;5172519;27;43967;-80
2022/02/19 01:49:33;;;;;;;;;;;7.20;99.90;;;;;;5244909;27;43530;-80
2022/02/19 01:52:00;;;;;;;;;;;7.20;99.90;;;;;;5172743;27;44263;-80
2022/02/19 01:54:27;;;;;;;;;;;7.20;99.90;;;;;;5172311;27;43648;-80
2022/02/19 01:56:54;;;;;;;;;;;7.20;99.90;;;;;;5172499;27;41906;-80
2022/02/19 01:59:22;;;;;;;;;;;7.20;99.90;;;;;;5173721;27;44250;-80
2022/02/19 02:01:49;;;;;;;;;;;7.20;99.90;;;;;;5172245;27;43482;-80
2022/02/19 02:04:16;;;;;;;;;;;7.20;99.90;;;;;;5172411;27;43299;-80
2022/02/19 02:06:43;;;;;;;;;;;7.20;99.90;;;;;;5174529;27;44254;-81
2022/02/19 02:09:10;;;;;;;;;;;7.20;99.90;;;;;;5172840;27;45994;-80
2022/02/19 02:11:37;;;;;;;;;;;7.20;99.90;;;;;;5172384;27;44050;-80
2022/02/19 02:14:06;;;;;;;;;;;7.10;99.90;;;;;;5172214;27;43408;-80
2022/02/19 02:16:41;;;;;;;;;;;7.20;99.90;;;;;;5172181;27;43811;-80
2022/02/19 02:19:09;;;;;;;;;;;7.10;99.90;;;;;;5173648;27;44207;-80
2022/02/19 02:21:36;;;;;;;;;;;7.10;99.90;;;;;;5172183;27;43553;-80
2022/02/19 02:24:04;;;;;;;;;;;7.10;99.90;;;;;;5172633;27;45725;-80
2022/02/19 02:26:31;;;;;;;;;;;7.10;99.90;;;;;;5172260;27;43908;-80
2022/02/19 02:28:58;;;;;;;;;;;7.10;99.90;;;;;;5173551;27;43128;-80
2022/02/19 02:31:26;;;;;;;;;;;7.10;99.90;;;;;;5173587;27;43980;-80
2022/02/19 02:33:53;;;;;;;;;;;7.10;99.90;;;;;;5174435;27;19989;-80
2022/02/19 02:36:20;;;;;;;;;;;7.00;99.90;;;;;;5173588;27;43316;-80
2022/02/19 02:38:47;;;;;;;;;;;7.00;99.90;;;;;;5173491;27;44018;-80
2022/02/19 02:41:15;;;;;;;;;;;7.00;99.90;;;;;;5172623;27;43610;-80
2022/02/19 02:43:42;;;;;;;;;;;7.00;99.90;;;;;;5173338;27;43235;-81
2022/02/19 02:46:09;;;;;;;;;;;7.00;99.90;;;;;;5173359;27;43391;-80
2022/02/19 02:48:36;;;;;;;;;;;7.00;99.90;;;;;;5173975;27;44238;-80
2022/02/19 02:51:05;;;;;;;;;;;7.00;99.90;;;;;;5172718;27;45807;-80
2022/02/19 02:53:40;;;;;;;;;;;7.00;99.90;;;;;;5172322;27;42707;-80
2022/02/19 02:56:08;;;;;;;;;;;7.00;99.90;;;;;;5173320;27;45108;-80
2022/02/19 02:58:35;;;;;;;;;;;6.90;99.90;;;;;;5172645;27;44238;-80
2022/02/19 03:01:03;;;;;;;;;;;6.90;99.90;;;;;;5172564;27;44218;-80
2022/02/19 03:03:30;;;;;;;;;;;6.90;99.90;;;;;;5173151;27;43272;-81
2022/02/19 03:05:57;;;;;;;;;;;6.90;99.90;;;;;;5173196;27;43013;-81
2022/02/19 03:08:24;;;;;;;;;;;6.90;99.90;;;;;;5173159;27;43874;-80
2022/02/19 03:10:51;;;;;;;;;;;6.90;99.90;;;;;;5173046;27;45917;-80
2022/02/19 03:13:21;;;;;;;;;;;6.90;99.90;;;;;;5171943;27;44282;-80
2022/02/19 03:15:48;;;;;;;;;;;6.90;99.90;;;;;;5173279;27;44222;-80
2022/02/19 03:18:18;;;;;;;;;;;6.90;99.90;;;;;;5173216;27;43316;-80
2022/02/19 03:20:45;;;;;;;;;;;6.90;99.90;;;;;;5173565;27;45415;-80
2022/02/19 03:23:12;;;;;;;;;;;6.80;99.90;;;;;;5171870;27;42867;-80
2022/02/19 03:25:39;;;;;;;;;;;6.80;99.90;;;;;;5172350;27;43919;-80
2022/02/19 03:28:06;;;;;;;;;;;6.80;99.90;;;;;;5244283;27;43338;-80
2022/02/19 03:30:33;;;;;;;;;;;6.80;99.90;;;;;;5171931;27;43524;-80
2022/02/19 03:33:00;;;;;;;;;;;6.80;99.90;;;;;;5173030;27;42033;-80
2022/02/19 03:35:30;;;;;;;;;;;6.80;99.90;;;;;;5171668;27;46018;-80
2022/02/19 03:37:57;;;;;;;;;;;6.80;99.90;;;;;;5171732;27;42959;-80
2022/02/19 03:40:24;;;;;;;;;;;6.80;99.90;;;;;;5172412;27;43489;-80
2022/02/19 03:42:51;;;;;;;;;;;6.80;99.90;;;;;;5172989;27;44031;-80
2022/02/19 03:45:18;;;;;;;;;;;6.80;99.90;;;;;;5173003;27;42379;-80
2022/02/19 03:47:45;;;;;;;;;;;6.80;99.90;;;;;;5172217;27;45125;-80
2022/02/19 03:50:17;;;;;;;;;;;6.80;99.90;;;;;;5171679;27;44289;-80
2022/02/19 03:52:45;;;;;;;;;;;6.70;99.90;;;;;;5171763;27;44126;-80
2022/02/19 03:55:12;;;;;;;;;;;6.70;99.90;;;;;;5172419;27;43733;-80
2022/02/19 03:57:39;;;;;;;;;;;6.70;99.90;;;;;;5171719;27;43239;-80
2022/02/19 04:00:07;;;;;;;;;;;6.70;99.90;;;;;;5171517;27;45773;-80
2022/02/19 04:02:38;;;;;;;;;;;6.70;99.90;;;;;;5171615;27;43971;-80
2022/02/19 04:05:07;;;;;;;;;;;6.70;99.90;;;;;;5172466;27;43890;-80
2022/02/19 04:07:34;;;;;;;;;;;6.70;99.90;;;;;;5172190;27;45795;-80
2022/02/19 04:10:02;;;;;;;;;;;6.60;99.90;;;;;;5171582;27;44237;-80
2022/02/19 04:12:29;;;;;;;;;;;6.70;99.90;;;;;;5171900;27;43236;-80
2022/02/19 04:14:56;;;;;;;;;;;6.60;99.90;;;;;;5173480;27;43970;-80
2022/02/19 04:17:23;;;;;;;;;;;6.60;99.90;;;;;;5173211;27;43261;-80
2022/02/19 04:19:53;;;;;;;;;;;6.60;99.90;;;;;;5171514;27;43999;-80
2022/02/19 04:22:20;;;;;;;;;;;6.60;99.90;;;;;;5171963;27;43471;-80
2022/02/19 04:24:48;;;;;;;;;;;6.60;99.90;;;;;;5171740;27;43894;-80
2022/02/19 04:27:16;;;;;;;;;;;6.60;99.90;;;;;;5173425;27;45148;-80
2022/02/19 04:29:44;;;;;;;;;;;6.60;99.90;;;;;;5171625;27;43702;-80
2022/02/19 04:32:11;;;;;;;;;;;6.60;99.90;;;;;;5171517;27;44307;-80
2022/02/19 04:34:38;;;;;;;;;;;6.50;99.90;;;;;;5171364;27;46046;-80
2022/02/19 04:37:06;;;;;;;;;;;6.60;99.90;;;;;;5171440;27;43408;-80
2022/02/19 04:39:33;;;;;;;;;;;6.60;99.90;;;;;;5172768;27;45114;-80
2022/02/19 04:42:00;;;;;;;;;;;6.50;99.90;;;;;;5172727;27;42929;-80
2022/02/19 04:44:29;;;;;;;;;;;6.50;99.90;;;;;;5172132;27;43521;-80
2022/02/19 04:46:56;;;;;;;;;;;6.50;99.90;;;;;;5172666;27;43516;-80
2022/02/19 04:49:23;;;;;;;;;;;6.50;99.90;;;;;;5173504;27;43421;-80
2022/02/19 04:51:50;;;;;;;;;;;6.50;99.90;;;;;;5171805;27;42727;-80
2022/02/19 04:54:17;;;;;;;;;;;6.50;99.90;;;;;;5174207;27;42419;-80
2022/02/19 04:56:45;;;;;;;;;;;6.50;99.90;;;;;;5173290;27;45102;-80
2022/02/19 04:59:12;;;;;;;;;;;6.50;99.90;;;;;;5174021;27;43171;-80
2022/02/19 05:01:39;;;;;;;;;;;6.50;99.90;;;;;;5172461;27;43617;-80
2022/02/19 05:04:09;;;;;;;;;;;6.50;99.90;;;;;;5172862;27;43953;-80
2022/02/19 05:06:36;;;;;;;;;;;6.50;99.90;;;;;;5173587;27;44165;-80
2022/02/19 05:09:03;;;;;;;;;;;6.50;99.90;;;;;;5174081;27;42788;-79
2022/02/19 05:11:30;;;;;;;;;;;6.50;99.90;;;;;;5173266;27;44557;-80
2022/02/19 05:13:57;;;;;;;;;;;6.50;99.90;;;;;;5172717;27;42838;-80
2022/02/19 05:16:24;;;;;;;;;;;6.50;99.90;;;;;;5173888;27;43927;-80
2022/02/19 05:18:51;;;;;;;;;;;6.50;99.90;;;;;;5172820;27;44081;-80
2022/02/19 05:21:18;;;;;;;;;;;6.50;99.90;;;;;;5245301;27;44818;-80
2022/02/19 05:23:45;;;;;;;;;;;6.40;99.90;;;;;;5172669;27;43554;-80
2022/02/19 05:26:12;;;;;;;;;;;6.40;99.90;;;;;;5173936;27;42691;-80
2022/02/19 05:28:41;;;;;;;;;;;6.40;99.90;;;;;;5172590;27;44552;-80
2022/02/19 05:31:08;;;;;;;;;;;6.40;99.90;;;;;;5174414;27;41624;-80
2022/02/19 05:33:39;;;;;;;;;;;6.40;99.90;;;;;;5173226;27;45941;-80
2022/02/19 05:36:06;;;;;;;;;;;6.40;99.90;;;;;;5174008;27;44300;-80
2022/02/19 05:38:33;;;;;;;;;;;6.40;99.90;;;;;;5172506;27;43329;-80
2022/02/19 05:41:00;;;;;;;;;;;6.40;99.90;;;;;;5173646;27;46359;-80
2022/02/19 05:43:27;;;;;;;;;;;6.40;99.90;;;;;;5172648;27;43002;-80
2022/02/19 05:45:57;;;;;;;;;;;6.40;99.90;;;;;;5172508;27;44243;-80
2022/02/19 05:48:24;;;;;;;;;;;6.40;99.90;;;;;;5174340;27;43490;-80
2022/02/19 05:50:51;;;;;;;;;;;6.40;99.90;;;;;;5172640;27;44002;-80
2022/02/19 05:53:18;;;;;;;;;;;6.40;99.90;;;;;;5173830;27;44569;-80
2022/02/19 05:55:45;;;;;;;;;;;6.40;99.90;;;;;;5172500;27;42925;-80
2022/02/19 05:58:13;;;;;;;;;;;6.30;99.90;;;;;;5173644;27;43495;-80
2022/02/19 06:00:40;;;;;;;;;;;6.30;99.90;;;;;;5174361;27;46053;-80
2022/02/19 06:03:07;;;;;;;;;;;6.30;99.90;;;;;;5173415;27;43877;-80
2022/02/19 06:05:34;;;;;;;;;;;6.30;99.90;;;;;;5245011;27;43883;-80
2022/02/19 06:08:02;;;;;;;;;;;6.30;99.90;;;;;;5172440;27;44240;-80
2022/02/19 06:10:29;;;;;;;;;;;6.30;99.90;;;;;;5173525;27;45217;-80
2022/02/19 06:12:58;;;;;;;;;;;6.30;99.90;;;;;;5172295;27;43332;-80
2022/02/19 06:15:25;;;;;;;;;;;6.30;99.90;;;;;;5172335;27;42904;-80
2022/02/19 06:17:55;;;;;;;;;;;6.30;99.90;;;;;;5173601;27;44312;-80
2022/02/19 06:20:22;;;;;;;;;;;6.30;99.90;;;;;;5172212;27;44224;-80
2022/02/19 06:22:49;;;;;;;;;;;6.30;99.90;;;;;;5172188;27;43136;-80
2022/02/19 06:25:17;;;;;;;;;;;6.30;99.90;;;;;;5172245;27;42642;-80
2022/02/19 06:27:44;;;;;;;;;;;6.30;99.90;;;;;;5173713;27;44268;-80
2022/02/19 06:30:13;;;;;;;;;;;6.30;99.90;;;;;;5172564;27;44130;-80
2022/02/19 06:32:41;;;;;;;;;;;6.30;99.90;;;;;;5172227;27;43568;-80
2022/02/19 06:35:09;;;;;;;;;;;6.30;99.90;;;;;;5174537;27;20031;-80
2022/02/19 06:37:46;;;;;;;;;;;6.20;99.90;;;;;;5172072;27;45264;-79
2022/02/19 06:40:14;;;;;;;;;;;6.20;99.90;;;;;;5172636;27;44513;-80
2022/02/19 06:42:42;;;;;;;;;;;6.20;99.90;;;;;;5171968;27;46162;-80
2022/02/19 06:45:10;;;;;;;;;;;6.20;99.90;;;;;;5172411;27;43183;-80
2022/02/19 06:47:37;;;;;;;;;;;6.20;99.90;;;;;;5173502;27;43228;-80
2022/02/19 06:50:05;;;;;;;;;;;6.30;99.90;;;;;;5173895;27;44857;-80
2022/02/19 06:52:32;;;;;;;;;;;6.20;99.90;;;;;;5172283;27;43533;-80
2022/02/19 06:54:59;;;;;;;;;;;6.20;99.90;;;;;;5172821;27;44300;-80
2022/02/19 06:57:26;;;;;;;;;;;6.20;99.90;;;;;;5172479;27;44353;-80
2022/02/19 06:59:53;;;;;;;;;;;6.20;99.90;;;;;;5172503;27;44784;-80
2022/02/19 07:02:20;;;;;;;;;;;6.20;99.90;;;;;;5240515;27;44503;-80
2022/02/19 07:04:47;;;;;;;;;;;6.20;99.90;;;;;;5168464;27;43176;-80
2022/02/19 07:07:15;;;;;;;;;;;6.10;99.90;;;;;;5168850;27;43538;-80
2022/02/19 07:09:42;;;;;;;;;;;6.20;99.90;;;;;;5168823;27;43976;-80
2022/02/19 07:12:10;;;;;;;;;;;6.20;99.90;;;;;;5168505;27;43926;-80
2022/02/19 07:14:37;;;;;;;;;;;6.10;99.90;;;;;;5167972;27;44250;-80
2022/02/19 07:17:04;;;;;;;;;;;6.10;99.90;;;;;;5153144;27;44123;-80
2022/02/19 07:19:32;;;;;;;;;;;6.10;99.90;;;;;;5168231;27;44094;-80
2022/02/19 07:22:00;;;;;;;;;;;6.20;99.90;;;;;;5152757;27;44371;-80
2022/02/19 07:24:27;;;;;;;;;;;6.10;99.90;;;;;;5168563;27;43530;-80
2022/02/19 07:26:55;;;;;;;;;;;6.10;99.90;;;;;;5152342;27;44291;-80
2022/02/19 07:29:25;;;;;;;;;;;6.10;99.90;;;;;;5167967;27;42990;-80
2022/02/19 07:31:52;;;;;;;;;;;6.10;99.90;;;;;;5152258;27;44252;-80
2022/02/19 07:34:19;;;;;;;;;;;6.10;99.90;;;;;;5168171;27;43893;-80
2022/02/19 07:36:46;;;;;;;;;;;6.10;99.90;;;;;;5152221;27;44222;-80
2022/02/19 07:39:13;;;;;;;;;;;6.10;99.90;;;;;;5168099;27;44292;-80
2022/02/19 07:41:41;;;;;;;;;;;6.10;99.90;;;;;;5168036;27;45755;-80
2022/02/19 07:44:10;;;;;;;;;;;6.10;99.90;;;;;;5152450;27;44149;-80
2022/02/19 07:46:37;;;;;;;;;;;6.10;99.90;;;;;;5168103;27;43541;-80
2022/02/19 08:00:07;;;;;;;;;;;6.10;99.90;;;;;;5153226;27;44297;-80
2022/02/19 08:02:34;;;;;;;;;;;6.10;99.90;;;;;;5164509;27;43263;-80
2022/02/19 08:05:01;;;;;;;;;;;6.10;99.90;;;;;;5131448;28;42831;-80
2022/02/19 08:07:28;;;;;;;;;;;6.10;99.90;;;;;;5164948;27;43973;-81
2022/02/19 08:09:55;;;;;;;;;;;6.10;99.90;;;;;;5165101;27;44231;-79
2022/02/19 08:12:22;;;;;;;;;;;6.10;99.90;;;;;;5132020;28;43341;-80
2022/02/19 08:14:50;;;;;;;;;;;6.10;99.90;;;;;;5164951;27;44544;-80
2022/02/19 08:17:17;;;;;;;;;;;6.10;99.90;;;;;;5218343;27;43578;-80
2022/02/19 08:19:44;;;;;;;;;;;6.10;99.90;;;;;;5131350;28;44256;-80
2022/02/19 08:22:11;;;;;;;;;;;6.10;99.90;;;;;;5131181;28;44758;-80
2022/02/19 08:24:39;;;;;;;;;;;6.10;99.90;;;;;;5218620;27;42990;-80
2022/02/19 08:27:06;;;;;;;;;;;6.10;99.90;;;;;;5131951;28;45119;-80
2022/02/19 08:29:33;;;;;;;;;;;6.10;99.90;;;;;;5131763;28;44981;-79
2022/02/19 08:32:00;;;;;;;;;;;6.10;99.90;;;;;;5131447;28;44080;-80
2022/02/19 08:34:27;;;;;;;;;;;6.10;99.90;;;;;;5131307;28;44265;-80
2022/02/19 08:36:56;;;;;;;;;;;6.10;99.90;;;;;;5148485;27;20043;-80
2022/02/19 08:39:23;;;;;;;;;;;6.10;99.90;;;;;;5164255;27;44088;-80
2022/02/19 08:41:51;;;;;;;;;;;6.10;99.90;;;;;;5219260;27;44027;-80
2022/02/19 08:44:18;;;;;;;;;;;6.10;99.90;;;;;;5146982;27;44656;-80
2022/02/19 08:46:45;;;;;;;;;;;6.10;99.90;;;;;;5218723;27;43952;-80
2022/02/19 08:49:12;;;;;;;;;;;6.10;99.90;;;;;;5164341;27;43900;-80
2022/02/19 08:51:39;;;;;;;;;;;6.10;99.90;;;;;;5131792;28;43477;-80
2022/02/19 08:54:07;;;;;;;;;;;6.10;99.90;;;;;;5131531;28;44408;-80
2022/02/19 08:56:34;;;;;;;;;;;6.10;99.90;;;;;;5147038;27;44556;-80
2022/02/19 08:59:01;;;;;;;;;;;6.10;99.90;;;;;;5131147;28;44031;-80
2022/02/19 09:01:29;;;;;;;;;;;6.10;99.90;;;;;;5153085;27;42913;-80
2022/02/19 09:03:56;;;;;;;;;;;6.10;99.90;;;;;;5172588;27;44653;-80
2022/02/19 09:06:25;;;;;;;;;;;6.10;99.90;;;;;;5171463;27;42675;-80
2022/02/19 09:08:52;;;;;;;;;;;6.10;99.90;;;;;;5171525;27;43096;-80
2022/02/19 09:11:20;;;;;;;;;;;6.10;99.90;;;;;;5171260;27;44510;-80
2022/02/19 09:13:47;;;;;;;;;;;6.10;99.90;;;;;;5172761;27;44258;-80
2022/02/19 09:16:15;;;;;;;;;;;6.10;99.90;;;;;;5172149;27;43626;-79
2022/02/19 09:18:42;;;;;;;;;;;6.20;99.90;;;;;;5173262;27;43344;-80
2022/02/19 09:21:09;;;;;;;;;;;6.10;99.90;;;;;;5172706;27;42612;-80
2022/02/19 09:23:36;;;;;;;;;;;6.20;99.90;;;;;;5243328;27;43919;-80
2022/02/19 09:26:05;;;;;;;;;;;6.10;99.90;;;;;;5171251;27;44577;-80
2022/02/19 09:28:32;;;;;;;;;;;6.20;99.90;;;;;;5172065;27;43306;-80
2022/02/19 09:31:00;;;;;;;;;;;6.20;99.90;;;;;;5171154;27;44556;-80
2022/02/19 09:33:27;;;;;;;;;;;6.20;99.90;;;;;;5243916;27;44351;-80
2022/02/19 09:35:55;;;;;;;;;;;6.20;99.90;;;;;;5172583;27;43427;-80
2022/02/19 09:38:24;;;;;;;;;;;6.20;99.90;;;;;;5171986;27;43521;-80
2022/02/19 09:40:52;;;;;;;;;;;6.20;99.90;;;;;;5172961;27;43825;-80
2022/02/19 09:43:19;;;;;;;;;;;6.20;99.90;;;;;;5173986;27;44096;-80
2022/02/19 09:45:47;;;;;;;;;;;6.20;99.90;;;;;;5172543;27;43984;-80
2022/02/19 09:48:16;;;;;;;;;;;6.20;99.90;;;;;;5173695;27;43632;-80
2022/02/19 09:50:46;;;;;;;;;;;6.30;99.90;;;;;;5173720;27;44032;-80
2022/02/19 09:53:14;;;;;;;;;;;6.20;99.90;;;;;;5173801;27;43204;-80
2022/02/19 09:55:41;;;;;;;;;;;6.30;99.90;;;;;;5172564;27;43045;-80
2022/02/19 09:58:08;;;;;;;;;;;6.30;99.90;;;;;;5172563;27;43966;-80
2022/02/19 10:00:42;;;;;;;;;;;6.30;99.90;;;;;;5172991;27;44318;-80
2022/02/19 10:03:11;;;;;;;;;;;6.30;99.90;;;;;;5173549;27;43113;-80
2022/02/19 10:05:38;;;;;;;;;;;6.30;99.90;;;;;;5173723;27;42745;-80
2022/02/19 10:08:06;;;;;;;;;;;6.30;99.90;;;;;;5172477;27;43502;-80
2022/02/19 10:10:37;;;;;;;;;;;6.30;99.90;;;;;;5245036;27;44520;-80
2022/02/19 10:13:08;;;;;;;;;;;6.30;99.90;;;;;;5172982;27;45950;-80
2022/02/19 10:15:49;;;;;;;;;;;6.30;99.90;;;;;;5172707;27;43469;-80
2022/02/19 10:18:35;;;;;;;;;;;6.30;99.90;;;;;;5174056;27;44766;-81
2022/02/19 10:21:13;;;;;;;;;;;6.40;99.90;;;;;;5172506;27;43498;-80
2022/02/19 10:23:44;;;;;;;;;;;6.40;99.90;;;;;;5173918;27;44550;-80
2022/02/19 10:26:12;;;;;;;;;;;6.40;99.90;;;;;;5172759;27;45520;-80
2022/02/19 10:28:40;;;;;;;;;;;6.40;99.90;;;;;;5173488;27;43926;-80
2022/02/19 10:31:10;;;;;;;;;;;6.40;99.90;;;;;;5172286;27;43841;-80
2022/02/19 10:33:40;;;;;;;;;;;6.40;99.90;;;;;;5173750;27;43143;-81
2022/02/19 10:36:14;;;;;;;;;;;6.50;99.90;;;;;;5172170;27;42739;-80
2022/02/19 10:38:55;;;;;;;;;;;6.40;99.90;;;;;;5173396;27;19993;-80
2022/02/19 10:41:39;;;;;;;;;;;6.40;99.90;;;;;;5172235;27;42340;-80
2022/02/19 10:44:19;;;;;;;;;;;6.50;99.90;;;;;;5173244;27;44129;-80
2022/02/19 10:46:47;;;;;;;;;;;6.50;99.90;;;;;;5173422;27;44491;-80
2022/02/19 10:49:14;;;;;;;;;;;6.50;99.90;;;;;;5172352;27;43236;-80
2022/02/19 10:51:43;;;;;;;;;;;6.60;99.90;;;;;;5172066;27;42681;-80
2022/02/19 10:54:11;;;;;;;;;;;6.60;99.90;;;;;;5173729;27;42947;-80
2022/02/19 10:56:38;;;;;;;;;;;6.60;99.90;;;;;;5173642;27;43302;-80
2022/02/19 10:59:06;;;;;;;;;;;6.60;99.90;;;;;;5172038;27;43331;-80
2022/02/19 11:01:41;;;;;;;;;;;6.60;99.90;;;;;;5171867;27;42781;-80
2022/02/19 11:04:14;;;;;;;;;;;6.60;99.90;;;;;;5172653;27;44500;-80
2022/02/19 11:06:42;;;;;;;;;;;6.60;99.90;;;;;;5173974;27;44278;-80
2022/02/19 11:09:10;;;;;;;;;;;6.70;99.90;;;;;;5172977;27;19993;-80
2022/02/19 11:11:38;;;;;;;;;;;6.70;99.90;;;;;;5171919;27;43835;-80
2022/02/19 11:14:09;;;;;;;;;;;6.70;99.90;;;;;;5172016;27;42707;-80
2022/02/19 11:16:36;;;;;;;;;;;6.70;99.90;;;;;;5172616;27;44147;-80
2022/02/19 11:19:04;;;;;;;;;;;6.70;99.90;;;;;;5172209;27;44018;-80
2022/02/19 11:21:35;;;;;;;;;;;6.80;99.90;;;;;;5173863;27;44010;-80
2022/02/19 11:24:03;;;;;;;;;;;6.80;99.90;;;;;;5172389;27;43282;-80
2022/02/19 11:26:31;;;;;;;;;;;6.80;99.90;;;;;;5173714;27;42885;-80
2022/02/19 11:29:02;;;;;;;;;;;6.80;99.90;;;;;;5171911;27;43133;-80
2022/02/19 11:31:31;;;;;;;;;;;6.80;99.90;;;;;;5171896;27;42818;-80
2022/02/19 11:34:03;;;;;;;;;;;6.90;99.90;;;;;;5173040;27;44914;-80
2022/02/19 11:36:31;;;;;;;;;;;6.90;99.90;;;;;;5173113;27;43548;-80
2022/02/19 11:38:58;;;;;;;;;;;6.90;99.90;;;;;;5172179;27;44497;-80
2022/02/19 11:41:37;;;;;;;;;;;7.00;99.90;;;;;;5173219;27;43076;-80
2022/02/19 11:44:24;;;;;;;;;;;7.00;99.90;;;;;;5171621;27;43525;-80
2022/02/19 11:46:53;;;;;;;;;;;7.00;99.90;;;;;;5172368;27;42522;-80
2022/02/19 11:49:22;;;;;;;;;;;7.00;99.90;;;;;;5173583;27;46398;-80
2022/02/19 11:52:01;;;;;;;;;;;7.10;99.90;;;;;;5173614;27;43949;-80
2022/02/19 11:54:48;;;;;;;;;;;7.10;99.90;;;;;;5233079;27;45645;-80
2022/02/19 11:57:17;;;;;;;;;;;7.10;99.90;;;;;;5171718;27;42967;-80
2022/02/19 11:59:46;;;;;;;;;;;7.10;99.90;;;;;;5171565;27;43843;-80
2022/02/19 12:02:15;;;;;;;;;;;7.10;99.90;;;;;;5172545;27;43904;-80
2022/02/19 12:04:42;;;;;;;;;;;7.10;99.90;;;;;;5171595;27;43337;-80
2022/02/19 12:07:10;;;;;;;;;;;7.20;99.90;;;;;;5243505;27;45146;-80
2022/02/19 12:10:01;;;;;;;;;;;7.20;99.90;;;;;;5173312;27;45156;-80
2022/02/19 12:12:28;;;;;;;;;;;7.20;99.90;;;;;;5165297;27;43195;-80
2022/02/19 12:14:57;;;;;;;;;;;7.30;99.90;;;;;;5173083;27;44320;-80
2022/02/19 12:17:39;;;;;;;;;;;7.30;99.90;;;;;;5172852;27;43845;-80
2022/02/19 12:20:09;;;;;;;;;;;7.30;99.90;;;;;;5171595;27;42272;-80
2022/02/19 12:22:38;;;;;;;;;;;7.30;99.90;;;;;;5172048;27;44481;-80
2022/02/19 12:25:06;;;;;;;;;;;7.30;99.90;;;;;;5171431;27;43695;-80
2022/02/19 12:27:33;;;;;;;;;;;7.40;99.90;;;;;;5171533;27;43254;-80
2022/02/19 12:30:19;;;;;;;;;;;7.40;99.90;;;;;;5172795;27;42963;-80
2022/02/19 12:32:47;;;;;;;;;;;7.50;99.90;;;;;;5172130;27;45256;-80
2022/02/19 12:35:14;;;;;;;;;;;7.50;99.90;;;;;;5171613;27;42965;-80
2022/02/19 12:37:42;;;;;;;;;;;7.50;99.90;;;;;;5173327;27;44761;-80
2022/02/19 12:40:14;;;;;;;;;;;7.60;99.90;;;;;;5173302;27;45735;-81
2022/02/19 12:42:45;;;;;;;;;;;7.60;99.90;;;;;;5172655;27;20030;-80
2022/02/19 12:45:12;;;;;;;;;;;7.60;99.90;;;;;;5171713;27;44185;-80
2022/02/19 12:47:40;;;;;;;;;;;7.60;99.90;;;;;;5244157;27;44153;-81
2022/02/19 12:50:08;;;;;;;;;;;7.70;99.90;;;;;;5171350;27;43352;-80
2022/02/19 12:52:36;;;;;;;;;;;7.70;99.90;;;;;;5171423;27;43754;-80
2022/02/19 12:55:07;;;;;;;;;;;7.70;99.90;;;;;;5172694;27;43198;-80
2022/02/19 12:57:38;;;;;;;;;;;7.70;99.90;;;;;;5155027;27;44354;-81
2022/02/19 13:00:07;;;;;;;;;;;7.70;99.90;;;;;;5171361;27;42816;-80
2022/02/19 13:02:35;;;;;;;;;;;7.80;99.90;;;;;;5171359;27;45197;-80
2022/02/19 13:05:07;;;;;;;;;;;7.80;99.90;;;;;;5171979;27;43560;-80
2022/02/19 13:07:34;;;;;;;;;;;7.80;99.90;;;;;;5171351;27;44116;-80
2022/02/19 13:10:02;;;;;;;;;;;7.80;99.90;;;;;;5171440;27;42836;-80
2022/02/19 13:12:31;;;;;;;;;;;7.80;99.90;;;;;;5171539;27;43925;-80
2022/02/19 13:14:59;;;;;;;;;;;7.90;99.90;;;;;;5172607;27;44737;-81
2022/02/19 13:17:27;;;;;;;;;;;7.90;99.90;;;;;;5174618;27;45381;-80
2022/02/19 13:20:12;;;;;;;;;;;7.90;99.90;;;;;;5174524;27;44743;-80
2022/02/19 13:22:40;;;;;;;;;;;8.00;99.90;;;;;;5172617;27;42357;-80
2022/02/19 13:25:09;;;;;;;;;;;8.00;99.90;;;;;;5173931;27;43237;-80
2022/02/19 13:27:36;;;;;;;;;;;8.00;99.90;;;;;;5172991;27;44276;-81
2022/02/19 13:30:11;;;;;;;;;;;8.00;99.90;;;;;;5173910;27;44878;-80
2022/02/19 13:32:38;;;;;;;;;;;8.00;99.90;;;;;;5172629;27;43903;-80
2022/02/19 13:35:07;;;;;;;;;;;8.10;99.90;;;;;;5245279;27;44585;-80
2022/02/19 13:37:36;;;;;;;;;;;8.10;99.90;;;;;;5172516;27;44685;-80
2022/02/19 13:40:13;;;;;;;;;;;8.10;99.90;;;;;;5172536;27;44215;-80
2022/02/19 13:42:47;;;;;;;;;;;8.20;99.90;;;;;;5174144;27;43882;-80
2022/02/19 13:45:36;;;;;;;;;;;8.20;99.90;;;;;;5172938;27;43330;-80
2022/02/19 13:48:04;;;;;;;;;;;8.30;99.90;;;;;;5173368;27;43393;-80
2022/02/19 13:50:37;;;;;;;;;;;8.30;99.90;;;;;;5173227;27;43320;-80
2022/02/19 13:53:06;;;;;;;;;;;8.30;99.90;;;;;;5173760;27;43348;-80
2022/02/19 13:55:35;;;;;;;;;;;8.30;99.90;;;;;;5172393;27;45798;-80
2022/02/19 13:58:09;;;;;;;;;;;8.40;99.90;;;;;;5173126;27;43944;-80
2022/02/19 14:00:36;;;;;;;;;;;8.40;99.90;;;;;;5174259;27;44864;-81
2022/02/19 14:03:07;;;;;;;;;;;8.40;99.90;;;;;;5172322;27;43542;-80
2022/02/19 14:05:38;;;;;;;;;;;8.40;99.90;;;;;;5172870;27;44755;-80
2022/02/19 14:08:05;;;;;;;;;;;8.40;99.90;;;;;;5173060;27;45208;-80
2022/02/19 14:10:33;;;;;;;;;;;8.40;99.90;;;;;;5172969;27;44720;-80
2022/02/19 14:13:09;;;;;;;;;;;8.40;99.90;;;;;;5172239;27;45982;-80
2022/02/19 14:15:37;;;;;;;;;;;8.40;99.90;;;;;;5174202;27;43530;-80
2022/02/19 14:18:10;;;;;;;;;;;8.40;99.90;;;;;;5172847;27;43440;-80
2022/02/19 14:20:39;;;;;;;;;;;8.40;99.90;;;;;;5174066;27;42880;-80
2022/02/19 14:23:25;;;;;;;;;;;8.40;99.90;;;;;;5172229;27;43138;-80
2022/02/19 14:25:57;;;;;;;;;;;8.40;99.90;;;;;;5172840;27;43581;-80
2022/02/19 14:28:31;;;;;;;;;;;8.40;99.90;;;;;;5172073;27;45407;-80
2022/02/19 14:31:01;;;;;;;;;;;8.40;99.90;;;;;;5172932;27;44263;-80
2022/02/19 14:33:29;;;;;;;;;;;8.40;99.90;;;;;;5172581;27;43526;-80
2022/02/19 14:35:56;;;;;;;;;;;8.40;99.90;;;;;;5244372;27;43161;-80
2022/02/19 14:38:30;;;;;;;;;;;8.40;99.90;;;;;;5172091;27;45073;-80
2022/02/19 14:40:59;;;;;;;;;;;8.40;99.90;;;;;;5173461;27;42670;-80
2022/02/19 14:43:29;;;;;;;;;;;8.40;99.90;;;;;;5173637;27;43981;-80
2022/02/19 14:46:00;;;;;;;;;;;8.50;99.90;;;;;;5172586;27;44394;-80
2022/02/19 14:48:27;;;;;;;;;;;8.50;99.90;;;;;;5172977;27;44362;-80
2022/02/19 14:50:56;;;;;;;;;;;8.50;99.90;;;;;;5173556;27;42774;-80